Time;durP1;ratioP1;P1;durP2;ratioP2;P2;SDS_P1;SDS_P2;PMS_P1;PMS_P2;Temp;Humidity;BMP_temperature;BMP_pressure;BME280_temperature;BME280_humidity;BME280_pressure;Samples;Min_cycle;Max_cycle;Signal;HPM_P1;HPM_P2
2023/03/04 00:01:37;;;;;;;13.27;2.95;;;6.20;99.90;;;;;;4993335;28;20969;-83
2023/03/04 00:04:03;;;;;;;17.88;3.72;;;6.20;99.90;;;;;;4998254;28;20428;-81
2023/03/04 00:06:29;;;;;;;16.55;3.40;;;6.20;99.90;;;;;;5005981;28;20508;-84
2023/03/04 00:08:54;;;;;;;16.75;3.50;;;6.30;99.90;;;;;;5021354;28;20424;-84
2023/03/04 00:11:20;;;;;;;14.90;2.95;;;6.20;99.90;;;;;;5002881;28;20432;-83
2023/03/04 00:13:46;;;;;;;14.00;3.33;;;6.20;99.90;;;;;;5022594;28;20432;-82
2023/03/04 00:16:12;;;;;;;13.50;2.80;;;6.20;99.90;;;;;;5003333;28;20416;-84
2023/03/04 00:18:37;;;;;;;12.68;3.03;;;6.20;99.90;;;;;;5005697;28;20432;-82
2023/03/04 00:21:03;;;;;;;19.95;3.90;;;6.20;99.90;;;;;;5005039;28;20438;-79
2023/03/04 00:23:29;;;;;;;18.23;3.53;;;6.20;99.90;;;;;;5006208;28;20523;-81
2023/03/04 00:25:54;;;;;;;19.63;3.90;;;6.20;99.90;;;;;;5004799;28;20425;-81
2023/03/04 00:28:20;;;;;;;15.65;3.40;;;6.20;99.90;;;;;;5007761;28;20883;-84
2023/03/04 00:30:46;;;;;;;16.23;2.83;;;6.10;99.90;;;;;;4997983;28;20932;-81
2023/03/04 00:33:12;;;;;;;14.93;3.50;;;6.20;99.90;;;;;;5000832;28;20426;-84
2023/03/04 00:35:37;;;;;;;14.77;3.00;;;6.20;99.90;;;;;;4991461;28;20451;-84
2023/03/04 00:38:03;;;;;;;16.48;2.58;;;6.10;99.90;;;;;;5006353;28;20508;-80
2023/03/04 00:40:29;;;;;;;15.85;3.10;;;6.20;99.90;;;;;;5014891;28;20452;-83
2023/03/04 00:42:54;;;;;;;16.10;4.05;;;6.20;99.90;;;;;;5017327;28;20586;-83
2023/03/04 00:45:20;;;;;;;13.48;2.78;;;6.10;99.90;;;;;;5016193;28;20484;-81
2023/03/04 00:47:46;;;;;;;15.43;3.15;;;6.10;99.90;;;;;;5010644;28;20439;-85
2023/03/04 00:50:11;;;;;;;17.30;2.57;;;6.20;99.90;;;;;;5036345;28;20449;-81
2023/03/04 00:52:37;;;;;;;11.87;2.87;;;6.20;99.90;;;;;;5022818;28;20640;-85
2023/03/04 00:55:04;;;;;;;15.03;3.30;;;6.20;99.90;;;;;;5017316;28;20420;-83
2023/03/04 00:57:29;;;;;;;13.00;2.73;;;6.10;99.90;;;;;;5011372;28;20433;-82
2023/03/04 00:59:55;;;;;;;17.80;3.30;;;6.10;99.90;;;;;;5010190;28;20451;-83
2023/03/04 01:02:21;;;;;;;17.67;3.53;;;6.10;99.90;;;;;;5010009;28;20428;-84
2023/03/04 01:04:46;;;;;;;12.57;2.70;;;6.10;99.90;;;;;;4991406;28;20459;-85
2023/03/04 01:07:12;;;;;;;11.73;2.53;;;6.10;99.90;;;;;;4991327;28;20451;-84
2023/03/04 01:09:38;;;;;;;15.43;2.70;;;6.10;99.90;;;;;;5007206;28;20935;-85
2023/03/04 01:12:03;;;;;;;13.33;2.33;;;6.10;99.90;;;;;;5004771;28;21001;-78
2023/03/04 01:14:29;;;;;;;16.38;3.67;;;6.10;99.90;;;;;;4978209;28;20428;-84
2023/03/04 01:16:55;;;;;;;13.05;3.20;;;6.10;99.90;;;;;;4991150;28;20441;-83
2023/03/04 01:19:20;;;;;;;14.32;3.13;;;6.00;99.90;;;;;;5025983;28;20408;-85
2023/03/04 01:21:46;;;;;;;18.55;2.95;;;6.10;99.90;;;;;;5008478;28;20737;-85
2023/03/04 01:24:11;;;;;;;14.35;2.75;;;6.10;99.90;;;;;;4990450;28;20788;-85
2023/03/04 01:26:37;;;;;;;18.88;2.95;;;6.00;99.90;;;;;;5008245;28;20926;-85
2023/03/04 01:29:03;;;;;;;17.17;3.87;;;6.10;99.90;;;;;;5008314;28;20421;-83
2023/03/04 01:31:28;;;;;;;10.97;2.13;;;6.00;99.90;;;;;;5014403;28;20433;-83
2023/03/04 01:33:54;;;;;;;16.87;3.37;;;6.10;99.90;;;;;;5019025;28;20472;-76
2023/03/04 01:36:20;;;;;;;21.70;4.23;;;6.00;99.90;;;;;;5012552;28;20413;-84
2023/03/04 01:38:45;;;;;;;18.13;3.40;;;6.00;99.90;;;;;;5020043;28;20786;-84
2023/03/04 01:41:12;;;;;;;17.43;3.60;;;6.00;99.90;;;;;;5010938;28;20428;-78
2023/03/04 01:43:39;;;;;;;11.52;2.65;;;6.00;99.90;;;;;;4992028;28;20428;-86
2023/03/04 01:46:05;;;;;;;15.75;3.03;;;6.00;99.90;;;;;;5010483;28;20471;-83
2023/03/04 01:48:35;;;;;;;17.58;2.80;;;6.10;99.90;;;;;;5008317;28;20455;-76
2023/03/04 01:51:05;;;;;;;16.23;4.03;;;6.00;99.90;;;;;;5008348;28;20816;-85
2023/03/04 01:53:31;;;;;;;15.20;2.83;;;6.00;99.90;;;;;;5009094;28;20449;-80
2023/03/04 01:56:03;;;;;;;12.98;2.80;;;6.00;99.90;;;;;;5006393;28;20428;-75
2023/03/04 01:58:30;;;;;;;15.05;4.00;;;6.00;99.90;;;;;;5004280;28;20494;-84
2023/03/04 02:00:56;;;;;;;14.33;2.90;;;6.00;99.90;;;;;;4993145;28;20869;-79
2023/03/04 02:03:23;;;;;;;14.45;3.30;;;6.00;99.90;;;;;;5000531;28;20513;-86
2023/03/04 02:05:50;;;;;;;15.13;3.40;;;6.00;99.90;;;;;;5000793;28;20432;-81
2023/03/04 02:08:19;;;;;;;17.27;3.87;;;5.90;99.90;;;;;;5006648;28;20430;-78
2023/03/04 02:10:46;;;;;;;14.77;2.75;;;6.10;99.90;;;;;;5001022;28;20635;-82
2023/03/04 02:13:13;;;;;;;16.30;2.63;;;6.00;99.90;;;;;;4985959;28;20440;-83
2023/03/04 02:15:39;;;;;;;17.42;3.22;;;5.90;99.90;;;;;;5007023;28;20429;-82
2023/03/04 02:18:18;;;;;;;17.40;3.55;;;5.90;99.90;;;;;;5005156;28;20884;-84
2023/03/04 02:21:17;;;;;;;15.18;3.33;;;5.90;99.90;;;;;;5006948;28;20828;-84
2023/03/04 02:24:14;;;;;;;13.73;3.40;;;5.90;99.90;;;;;;5006857;28;20449;-83
2023/03/04 02:26:42;;;;;;;18.50;3.67;;;5.90;99.90;;;;;;4988701;28;20438;-83
2023/03/04 02:29:10;;;;;;;15.93;3.45;;;5.90;99.90;;;;;;4998637;28;20424;-85
2023/03/04 02:31:42;;;;;;;22.50;3.67;;;5.90;99.90;;;;;;5006130;28;20490;-85
2023/03/04 02:34:14;;;;;;;17.35;3.53;;;5.90;99.90;;;;;;5005243;28;20516;-83
2023/03/04 02:36:41;;;;;;;14.57;3.40;;;5.90;99.90;;;;;;5006115;28;20437;-84
2023/03/04 02:39:21;;;;;;;22.08;4.22;;;5.90;99.90;;;;;;5004407;28;20433;-83
2023/03/04 02:41:48;;;;;;;18.05;3.88;;;6.00;99.90;;;;;;5007259;28;20424;-83
2023/03/04 02:44:18;;;;;;;16.50;3.00;;;5.90;99.90;;;;;;5006986;28;20428;-83
2023/03/04 02:46:45;;;;;;;15.38;3.30;;;6.00;99.90;;;;;;5004903;28;20459;-82
2023/03/04 02:49:11;;;;;;;17.30;2.75;;;6.00;99.90;;;;;;4988132;28;20949;-80
2023/03/04 02:51:37;;;;;;;13.17;2.60;;;5.90;99.90;;;;;;5023357;28;20435;-85
2023/03/04 02:54:03;;;;;;;10.65;3.08;;;6.00;99.90;;;;;;5005989;28;20421;-76
2023/03/04 02:56:28;;;;;;;16.05;3.35;;;6.00;99.90;;;;;;5006226;28;20432;-84
2023/03/04 02:58:54;;;;;;;13.23;2.92;;;6.00;99.90;;;;;;5022421;28;20487;-85
2023/03/04 03:01:20;;;;;;;13.38;3.60;;;6.10;99.90;;;;;;5003387;28;20805;-79
2023/03/04 03:03:45;;;;;;;14.27;2.58;;;6.00;99.90;;;;;;5006297;28;20476;-86
2023/03/04 03:06:11;;;;;;;13.77;3.27;;;6.10;99.90;;;;;;5004808;28;20451;-84
2023/03/04 03:08:37;;;;;;;17.60;2.13;;;6.10;99.90;;;;;;4987811;28;20513;-82
2023/03/04 03:11:03;;;;;;;14.00;2.67;;;6.10;99.90;;;;;;5004760;28;20781;-84
2023/03/04 03:13:28;;;;;;;10.65;2.35;;;6.00;99.90;;;;;;5004892;28;20433;-78
2023/03/04 03:15:54;;;;;;;14.45;2.97;;;6.00;99.90;;;;;;5006024;28;20826;-84
2023/03/04 03:18:20;;;;;;;14.20;2.53;;;6.00;99.90;;;;;;5003447;28;20428;-84
2023/03/04 03:20:45;;;;;;;9.47;2.50;;;6.00;99.90;;;;;;5005215;28;20476;-81
2023/03/04 03:23:12;;;;;;;9.63;2.22;;;6.10;99.90;;;;;;5007872;28;20408;-84
2023/03/04 03:25:37;;;;;;;12.93;3.08;;;6.10;99.90;;;;;;5005520;28;20513;-76
2023/03/04 03:28:03;;;;;;;13.02;2.10;;;6.00;99.90;;;;;;5022677;28;20548;-83
2023/03/04 03:30:29;;;;;;;9.88;2.00;;;6.10;99.90;;;;;;5006976;28;20449;-83
2023/03/04 03:32:54;;;;;;;16.87;3.00;;;6.10;99.90;;;;;;5008103;28;20406;-79
2023/03/04 03:35:20;;;;;;;19.45;3.13;;;6.20;99.90;;;;;;4989571;28;20429;-83
2023/03/04 03:37:47;;;;;;;9.82;2.08;;;6.10;99.90;;;;;;4986781;28;20925;-82
2023/03/04 03:40:13;;;;;;;12.18;3.00;;;6.10;99.90;;;;;;4997423;28;20433;-84
2023/03/04 03:42:39;;;;;;;10.68;2.15;;;6.10;99.90;;;;;;5022669;28;20444;-81
2023/03/04 03:45:05;;;;;;;11.15;2.45;;;6.00;99.90;;;;;;4988448;28;20429;-84
2023/03/04 03:47:31;;;;;;;14.73;2.73;;;6.10;99.90;;;;;;5006453;28;20586;-80
2023/03/04 03:49:57;;;;;;;15.70;3.30;;;6.00;99.90;;;;;;5005954;28;20903;-81
2023/03/04 03:52:22;;;;;;;13.83;3.17;;;6.00;99.90;;;;;;5006745;28;20427;-84
2023/03/04 03:54:48;;;;;;;16.00;3.03;;;6.00;99.90;;;;;;5004688;28;20487;-81
2023/03/04 03:57:14;;;;;;;17.02;3.00;;;6.10;99.90;;;;;;5005368;28;20744;-84
2023/03/04 03:59:39;;;;;;;15.70;2.50;;;6.10;99.90;;;;;;5022495;28;20436;-82
2023/03/04 04:02:05;;;;;;;12.80;2.60;;;6.00;99.90;;;;;;5005824;28;20468;-83
2023/03/04 04:04:31;;;;;;;10.48;1.90;;;6.10;99.90;;;;;;4995431;28;20431;-84
2023/03/04 04:06:57;;;;;;;14.25;2.53;;;6.20;99.90;;;;;;5004931;28;20425;-75
2023/03/04 04:09:22;;;;;;;8.43;2.00;;;6.10;99.90;;;;;;5005212;28;20409;-79
2023/03/04 04:11:48;;;;;;;15.83;2.10;;;6.10;99.90;;;;;;5006121;28;20432;-85
2023/03/04 04:14:14;;;;;;;10.07;2.58;;;6.10;99.90;;;;;;5007843;28;20424;-76
2023/03/04 04:16:40;;;;;;;9.85;2.03;;;6.10;99.90;;;;;;4987827;28;20792;-84
2023/03/04 04:19:05;;;;;;;9.73;1.87;;;6.20;99.90;;;;;;5003129;28;20429;-81
2023/03/04 04:21:31;;;;;;;8.20;1.90;;;6.10;99.90;;;;;;5015039;28;20836;-78
2023/03/04 04:23:57;;;;;;;10.47;1.90;;;6.10;99.90;;;;;;5018623;28;20469;-79
2023/03/04 04:26:22;;;;;;;12.53;2.40;;;6.10;99.90;;;;;;5027797;28;20441;-78
2023/03/04 04:28:48;;;;;;;8.40;1.80;;;6.20;99.90;;;;;;4991529;28;20442;-82
2023/03/04 04:31:14;;;;;;;9.50;2.13;;;6.20;99.90;;;;;;5010193;28;20515;-83
2023/03/04 04:33:39;;;;;;;9.57;2.30;;;6.20;99.90;;;;;;4993687;28;20815;-83
2023/03/04 04:36:05;;;;;;;6.93;1.63;;;6.20;99.90;;;;;;4992033;28;20430;-83
2023/03/04 04:38:31;;;;;;;9.97;1.37;;;6.20;99.90;;;;;;5010218;28;20431;-82
2023/03/04 04:40:58;;;;;;;10.17;1.93;;;6.20;99.90;;;;;;5009213;28;20454;-83
2023/03/04 04:43:24;;;;;;;11.07;2.20;;;6.30;99.90;;;;;;5012427;28;20463;-84
2023/03/04 04:45:50;;;;;;;9.20;2.30;;;6.20;99.90;;;;;;5021873;28;20424;-82
2023/03/04 04:48:16;;;;;;;8.40;1.77;;;6.20;99.90;;;;;;5020403;28;20771;-82
2023/03/04 04:50:41;;;;;;;7.27;1.40;;;6.20;99.90;;;;;;5011954;28;20433;-85
2023/03/04 04:53:09;;;;;;;7.90;2.00;;;6.20;99.90;;;;;;5014105;28;20431;-79
2023/03/04 04:55:34;;;;;;;8.48;1.92;;;6.10;99.90;;;;;;5007572;28;20431;-83
2023/03/04 04:58:00;;;;;;;6.60;1.90;;;6.20;99.90;;;;;;5024800;28;20421;-81
2023/03/04 05:00:26;;;;;;;10.18;1.88;;;6.20;99.90;;;;;;5011363;28;20448;-81
2023/03/04 05:02:51;;;;;;;7.72;1.45;;;6.20;99.90;;;;;;5010883;28;20831;-84
2023/03/04 05:05:17;;;;;;;10.00;1.63;;;6.20;99.90;;;;;;5010206;28;20524;-84
2023/03/04 05:07:43;;;;;;;8.55;1.50;;;6.10;99.90;;;;;;4991802;28;20788;-84
2023/03/04 05:10:09;;;;;;;9.70;1.35;;;6.10;99.90;;;;;;5009167;28;20850;-77
2023/03/04 05:12:35;;;;;;;8.13;1.40;;;6.10;99.90;;;;;;4994232;28;20536;-82
2023/03/04 05:15:00;;;;;;;10.40;1.50;;;6.00;99.90;;;;;;4986385;28;20819;-76
2023/03/04 05:17:26;;;;;;;12.27;2.17;;;6.00;99.90;;;;;;5007828;28;20911;-84
2023/03/04 05:19:52;;;;;;;6.97;1.10;;;6.00;99.90;;;;;;5008666;28;20452;-81
2023/03/04 05:22:17;;;;;;;7.70;1.70;;;6.00;99.90;;;;;;4993199;28;20781;-77
2023/03/04 05:24:43;;;;;;;10.20;2.40;;;5.90;99.90;;;;;;4989413;28;20920;-84
2023/03/04 05:27:09;;;;;;;6.97;1.48;;;6.00;99.90;;;;;;4987406;28;20780;-84
2023/03/04 05:29:34;;;;;;;8.65;1.40;;;5.90;99.90;;;;;;5010744;28;20424;-76
2023/03/04 05:32:00;;;;;;;10.05;1.60;;;6.00;99.90;;;;;;5008194;28;21047;-83
2023/03/04 05:34:25;;;;;;;8.88;1.42;;;6.00;99.90;;;;;;5009750;28;20416;-83
2023/03/04 05:36:51;;;;;;;6.80;1.23;;;6.00;99.90;;;;;;5008224;28;20502;-77
2023/03/04 05:39:17;;;;;;;9.27;1.73;;;5.90;99.90;;;;;;5009170;28;20494;-81
2023/03/04 05:41:42;;;;;;;9.90;2.30;;;5.90;99.90;;;;;;5006436;28;20508;-83
2023/03/04 05:44:08;;;;;;;7.53;1.33;;;6.00;99.90;;;;;;5008807;28;20425;-79
2023/03/04 05:46:34;;;;;;;8.68;1.60;;;6.00;99.90;;;;;;5008071;28;20444;-84
2023/03/04 05:49:00;;;;;;;5.50;1.38;;;5.90;99.90;;;;;;4991637;28;20457;-81
2023/03/04 05:51:26;;;;;;;5.95;1.38;;;6.00;99.90;;;;;;5007315;28;20439;-82
2023/03/04 05:53:51;;;;;;;9.50;2.67;;;5.90;99.90;;;;;;5006495;28;20424;-83
2023/03/04 05:56:18;;;;;;;12.65;2.55;;;5.90;99.90;;;;;;5008110;28;20511;-84
2023/03/04 05:58:46;;;;;;;14.77;1.95;;;5.90;99.90;;;;;;4992370;28;20428;-83
2023/03/04 06:01:13;;;;;;;8.57;1.90;;;5.80;99.90;;;;;;5008418;28;20432;-82
2023/03/04 06:03:38;;;;;;;14.65;2.55;;;5.90;99.90;;;;;;5007629;28;20437;-83
2023/03/04 06:06:05;;;;;;;9.23;1.60;;;6.00;99.90;;;;;;5005938;28;20417;-80
2023/03/04 06:08:31;;;;;;;9.25;1.33;;;5.80;99.90;;;;;;5023651;28;20475;-83
2023/03/04 06:10:57;;;;;;;10.85;1.50;;;6.00;99.90;;;;;;5008066;28;20827;-84
2023/03/04 06:13:24;;;;;;;9.02;1.58;;;5.90;99.90;;;;;;4989632;28;20461;-84
2023/03/04 06:15:58;;;;;;;9.10;1.45;;;5.90;99.90;;;;;;4991116;28;20421;-80
2023/03/04 06:18:24;;;;;;;6.20;1.42;;;6.00;99.90;;;;;;5007549;28;20814;-80
2023/03/04 06:20:54;;;;;;;9.88;1.52;;;5.80;99.90;;;;;;5006592;28;21026;-79
2023/03/04 06:23:19;;;;;;;8.38;2.05;;;5.80;99.90;;;;;;4993865;28;20428;-84
2023/03/04 06:25:45;;;;;;;12.23;2.55;;;5.70;99.90;;;;;;4992024;28;20405;-82
2023/03/04 06:28:11;;;;;;;8.63;1.70;;;5.80;99.90;;;;;;5001721;28;20456;-81
2023/03/04 06:30:36;;;;;;;9.73;2.10;;;5.70;99.90;;;;;;5005087;28;20437;-83
2023/03/04 06:33:02;;;;;;;10.52;2.40;;;5.70;99.90;;;;;;5008501;28;20838;-83
2023/03/04 06:35:28;;;;;;;7.05;0.90;;;5.70;99.90;;;;;;5008733;28;20501;-82
2023/03/04 06:37:53;;;;;;;7.32;1.70;;;5.80;99.90;;;;;;5006421;28;20507;-84
2023/03/04 06:40:19;;;;;;;7.20;1.67;;;5.80;99.90;;;;;;5007134;28;20412;-86
2023/03/04 06:42:45;;;;;;;7.47;1.90;;;5.70;99.90;;;;;;5007902;28;20420;-82
2023/03/04 06:45:11;;;;;;;11.10;2.58;;;5.80;99.90;;;;;;5002746;28;20429;-81
2023/03/04 06:47:38;;;;;;;7.07;1.30;;;5.80;99.90;;;;;;5022798;28;20612;-83
2023/03/04 06:50:04;;;;;;;8.75;2.03;;;5.70;99.90;;;;;;4986924;28;20437;-84
2023/03/04 06:52:30;;;;;;;6.47;1.57;;;5.70;99.90;;;;;;5006055;28;20487;-83
2023/03/04 06:54:55;;;;;;;8.93;1.70;;;5.80;99.90;;;;;;5007192;28;20818;-82
2023/03/04 06:57:21;;;;;;;10.60;1.85;;;5.90;99.90;;;;;;4989933;28;20460;-81
2023/03/04 06:59:46;;;;;;;7.13;1.90;;;5.70;99.90;;;;;;4991945;28;20428;-81
2023/03/04 07:02:12;;;;;;;11.18;1.73;;;5.80;99.90;;;;;;5011581;28;20490;-83
2023/03/04 07:04:39;;;;;;;7.60;1.98;;;5.80;99.90;;;;;;5015764;28;20471;-82
2023/03/04 07:07:04;;;;;;;10.40;2.78;;;5.90;99.90;;;;;;5010284;28;20437;-82
2023/03/04 07:09:30;;;;;;;11.23;2.97;;;5.90;99.90;;;;;;5008165;28;20443;-80
2023/03/04 07:11:56;;;;;;;10.32;1.80;;;5.90;99.90;;;;;;5020698;28;20463;-82
2023/03/04 07:14:22;;;;;;;10.43;2.60;;;6.00;99.90;;;;;;4996017;28;20428;-81
2023/03/04 07:16:47;;;;;;;7.43;1.80;;;6.00;99.90;;;;;;4986437;28;20443;-78
2023/03/04 07:19:13;;;;;;;9.47;2.30;;;6.00;99.90;;;;;;5017706;28;20428;-83
2023/03/04 07:21:39;;;;;;;10.97;1.93;;;6.10;99.90;;;;;;5009372;28;20429;-79
2023/03/04 07:24:05;;;;;;;8.37;2.30;;;6.10;99.90;;;;;;5016582;28;21374;-79
2023/03/04 07:26:30;;;;;;;7.57;1.40;;;6.10;99.90;;;;;;4998269;28;20505;-82
2023/03/04 07:28:58;;;;;;;10.13;1.67;;;6.10;99.90;;;;;;5000103;28;20420;-79
2023/03/04 07:31:28;;;;;;;12.00;2.70;;;6.10;99.90;;;;;;5007306;28;20429;-77
2023/03/04 07:34:00;;;;;;;7.53;1.60;;;6.10;99.90;;;;;;4997015;28;20556;-80
2023/03/04 07:36:26;;;;;;;9.77;1.20;;;6.20;99.90;;;;;;4996623;28;20432;-80
2023/03/04 07:38:53;;;;;;;9.05;1.58;;;6.20;99.90;;;;;;4998963;28;20424;-80
2023/03/04 07:41:20;;;;;;;8.23;1.83;;;6.20;99.90;;;;;;4996847;28;20432;-79
2023/03/04 07:43:45;;;;;;;5.53;1.90;;;6.20;99.90;;;;;;5001420;28;20440;-79
2023/03/04 07:46:11;;;;;;;9.23;1.83;;;6.30;99.90;;;;;;4999696;28;20907;-80
2023/03/04 07:48:37;;;;;;;7.63;1.42;;;6.20;99.90;;;;;;5003154;28;20845;-78
2023/03/04 07:51:08;;;;;;;10.25;2.30;;;6.40;99.90;;;;;;5002378;28;20437;-80
2023/03/04 07:53:36;;;;;;;11.73;2.20;;;6.40;99.90;;;;;;5005863;28;20420;-79
2023/03/04 07:56:02;;;;;;;9.65;2.08;;;6.40;99.90;;;;;;4997820;28;20426;-81
2023/03/04 07:58:27;;;;;;;13.38;3.13;;;6.50;99.90;;;;;;4994215;28;20503;-78
2023/03/04 08:00:53;;;;;;;11.82;3.08;;;6.40;99.90;;;;;;5001323;28;20563;-81
2023/03/04 08:03:19;;;;;;;12.32;2.50;;;6.30;99.90;;;;;;4996721;28;20458;-80
2023/03/04 08:05:44;;;;;;;16.42;3.20;;;6.40;99.90;;;;;;5001691;28;21409;-79
2023/03/04 08:08:10;;;;;;;16.23;2.50;;;6.60;99.90;;;;;;4998284;28;20432;-80
2023/03/04 08:10:38;;;;;;;16.80;4.75;;;6.60;99.90;;;;;;5012294;28;20512;-80
2023/03/04 08:13:05;;;;;;;19.08;4.40;;;6.60;99.90;;;;;;4999164;28;20457;-78
2023/03/04 08:15:32;;;;;;;15.00;3.38;;;6.60;99.90;;;;;;4975616;28;20417;-76
2023/03/04 08:17:57;;;;;;;10.77;3.25;;;6.60;99.90;;;;;;5001842;28;20460;-79
2023/03/04 08:20:23;;;;;;;11.57;2.47;;;6.60;99.90;;;;;;4976512;28;20433;-78
2023/03/04 08:22:50;;;;;;;14.57;3.17;;;6.70;99.90;;;;;;4996266;28;20510;-79
2023/03/04 08:25:16;;;;;;;16.60;4.18;;;6.60;99.90;;;;;;5001830;28;20434;-79
2023/03/04 08:27:42;;;;;;;12.53;3.30;;;6.60;99.90;;;;;;4988020;28;20433;-78
2023/03/04 08:30:08;;;;;;;17.90;4.20;;;6.60;99.90;;;;;;5006997;28;20424;-79
2023/03/04 08:32:34;;;;;;;15.30;3.30;;;6.60;99.90;;;;;;5007240;28;20429;-80
2023/03/04 08:35:01;;;;;;;11.20;3.20;;;6.50;99.90;;;;;;4989981;28;20511;-80
2023/03/04 08:37:30;;;;;;;15.82;3.65;;;6.60;99.90;;;;;;5007386;28;20779;-80
2023/03/04 08:39:56;;;;;;;13.85;3.25;;;6.60;99.90;;;;;;4988084;28;20930;-80
2023/03/04 08:42:23;;;;;;;16.40;3.77;;;6.70;99.90;;;;;;5005647;28;20457;-81
2023/03/04 08:44:49;;;;;;;18.88;4.70;;;6.80;99.90;;;;;;5004363;28;20439;-80
2023/03/04 08:47:15;;;;;;;14.25;2.80;;;6.90;99.90;;;;;;5005404;28;20428;-80
2023/03/04 08:49:40;;;;;;;8.90;2.30;;;6.90;99.90;;;;;;4987527;28;20438;-79
2023/03/04 08:52:06;;;;;;;12.95;2.65;;;6.80;99.90;;;;;;5013786;28;20445;-79
2023/03/04 08:54:32;;;;;;;11.55;3.05;;;6.90;99.90;;;;;;4995613;28;20433;-75
2023/03/04 08:56:58;;;;;;;15.07;3.60;;;6.90;99.90;;;;;;5006472;28;20428;-77
2023/03/04 08:59:23;;;;;;;15.13;2.60;;;6.90;99.90;;;;;;5008375;28;20754;-79
2023/03/04 09:01:52;;;;;;;15.18;3.38;;;6.90;99.90;;;;;;4997318;28;20433;-78
2023/03/04 09:04:18;;;;;;;14.80;3.25;;;6.90;99.90;;;;;;5021865;28;20427;-79
2023/03/04 09:06:43;;;;;;;12.68;3.92;;;6.90;99.90;;;;;;5006594;28;21068;-78
2023/03/04 09:09:09;;;;;;;21.77;9.88;;;6.80;99.90;;;;;;4985537;28;20435;-77
2023/03/04 09:11:35;;;;;;;18.65;5.45;;;6.80;99.90;;;;;;5007990;28;20440;-83
2023/03/04 09:14:00;;;;;;;20.65;4.15;;;6.80;99.90;;;;;;5008225;28;20420;-78
2023/03/04 09:16:26;;;;;;;16.00;3.38;;;6.80;99.90;;;;;;5008442;28;20511;-78
2023/03/04 09:18:52;;;;;;;17.13;4.97;;;6.80;99.90;;;;;;5004473;28;20435;-78
2023/03/04 09:21:17;;;;;;;25.37;4.93;;;6.80;99.90;;;;;;5010164;28;20780;-78
2023/03/04 09:23:43;;;;;;;14.93;3.83;;;6.90;99.90;;;;;;4991973;28;20413;-77
2023/03/04 09:26:22;;;;;;;18.53;4.20;;;6.90;99.90;;;;;;5008484;28;20437;-78
2023/03/04 09:28:56;;;;;;;22.00;4.45;;;6.90;99.90;;;;;;4992635;28;20539;-78
2023/03/04 09:31:23;;;;;;;19.73;3.78;;;7.10;99.90;;;;;;5007566;28;20947;-79
2023/03/04 09:33:49;;;;;;;21.17;5.10;;;7.10;99.90;;;;;;5002225;28;20432;-79
2023/03/04 09:36:15;;;;;;;16.75;3.85;;;7.00;99.90;;;;;;5004728;28;20417;-78
2023/03/04 09:38:42;;;;;;;21.00;3.83;;;6.90;99.90;;;;;;5007991;28;20517;-78
2023/03/04 09:41:39;;;;;;;24.83;6.28;;;6.90;99.90;;;;;;5000014;28;20424;-74
2023/03/04 09:44:15;;;;;;;21.50;3.40;;;7.00;99.90;;;;;;5004873;28;20450;-78
2023/03/04 09:46:41;;;;;;;14.68;3.42;;;7.00;99.90;;;;;;5005933;28;20480;-78
2023/03/04 09:49:11;;;;;;;13.02;3.17;;;7.00;99.90;;;;;;5007691;28;21108;-80
2023/03/04 09:51:55;;;;;;;17.45;3.60;;;7.00;99.90;;;;;;5007698;28;20437;-78
2023/03/04 09:54:54;;;;;;;18.10;3.88;;;7.10;99.90;;;;;;5006515;28;20923;-76
2023/03/04 09:57:39;;;;;;;14.85;3.55;;;7.20;99.90;;;;;;5006679;28;20435;-78
2023/03/04 10:00:18;;;;;;;10.27;2.50;;;7.20;99.90;;;;;;5008532;28;20424;-78
2023/03/04 10:03:02;;;;;;;13.80;3.60;;;7.30;99.90;;;;;;5010346;28;20432;-78
2023/03/04 10:05:35;;;;;;;12.70;3.00;;;7.30;99.90;;;;;;5011830;28;20447;-77
2023/03/04 10:08:26;;;;;;;11.63;3.25;;;7.10;99.90;;;;;;5001047;28;20426;-76
2023/03/04 10:10:55;;;;;;;17.98;5.50;;;7.20;99.90;;;;;;4999937;28;20430;-78
2023/03/04 10:13:31;;;;;;;14.32;4.65;;;7.20;99.90;;;;;;5010009;28;20942;-78
2023/03/04 10:16:01;;;;;;;4.95;1.48;;;7.30;99.90;;;;;;5005223;28;20415;-80
2023/03/04 10:18:32;;;;;;;6.60;1.30;;;7.40;99.90;;;;;;5005044;28;21005;-77
2023/03/04 10:21:16;;;;;;;5.97;1.70;;;7.30;99.90;;;;;;5007319;28;20492;-76
2023/03/04 10:23:42;;;;;;;6.00;1.17;;;7.40;99.90;;;;;;5006619;28;20935;-79
2023/03/04 10:26:13;;;;;;;9.98;1.75;;;7.50;99.90;;;;;;5004669;28;20436;-77
2023/03/04 10:28:39;;;;;;;7.18;2.03;;;7.70;99.90;;;;;;5006303;28;20456;-77
2023/03/04 10:31:07;;;;;;;6.53;1.77;;;7.80;99.90;;;;;;5007287;28;20940;-78
2023/03/04 10:33:35;;;;;;;7.57;2.05;;;7.80;99.90;;;;;;5009411;28;20440;-79
2023/03/04 10:36:22;;;;;;;8.18;2.20;;;7.70;99.90;;;;;;5002108;28;20461;-77
2023/03/04 10:38:52;;;;;;;10.35;2.15;;;7.50;99.90;;;;;;4988149;28;20423;-78
2023/03/04 10:41:24;;;;;;;9.35;2.05;;;7.40;99.90;;;;;;5005103;28;20430;-79
2023/03/04 10:44:17;;;;;;;8.93;2.50;;;7.20;99.90;;;;;;5040600;28;20411;-77
2023/03/04 10:46:45;;;;;;;12.50;2.90;;;7.00;99.90;;;;;;4998459;28;20436;-78
2023/03/04 10:49:13;;;;;;;10.23;1.83;;;7.00;99.90;;;;;;5007048;28;20471;-78
2023/03/04 10:51:52;;;;;;;8.40;2.07;;;7.10;99.90;;;;;;4999567;28;20792;-80
2023/03/04 10:54:45;;;;;;;12.40;2.33;;;6.90;99.90;;;;;;5022272;28;20424;-76
2023/03/04 10:57:18;;;;;;;10.88;1.98;;;6.90;99.90;;;;;;5005853;28;20429;-78
2023/03/04 11:00:01;;;;;;;16.00;3.22;;;7.10;99.90;;;;;;5004131;28;20397;-79
2023/03/04 11:02:30;;;;;;;11.25;2.13;;;7.00;99.90;;;;;;5007447;28;20425;-78
2023/03/04 11:05:17;;;;;;;14.82;3.05;;;7.20;99.90;;;;;;5006660;28;20427;-79
2023/03/04 11:07:57;;;;;;;15.82;3.00;;;7.60;99.90;;;;;;5006346;28;20428;-77
2023/03/04 11:10:29;;;;;;;13.85;2.45;;;7.60;99.90;;;;;;5022810;28;20784;-77
2023/03/04 11:12:58;;;;;;;14.05;4.20;;;7.80;99.90;;;;;;5006648;28;20432;-77
2023/03/04 11:15:26;;;;;;;22.52;3.70;;;7.80;99.90;;;;;;5005449;28;20429;-78
2023/03/04 11:18:11;;;;;;;16.85;3.70;;;7.70;99.90;;;;;;5004085;28;20440;-78
2023/03/04 11:20:47;;;;;;;10.98;2.58;;;7.50;99.90;;;;;;5005513;28;20456;-78
2023/03/04 11:23:22;;;;;;;14.23;3.83;;;7.50;99.90;;;;;;5022806;28;20420;-80
2023/03/04 11:25:54;;;;;;;14.48;3.33;;;7.50;99.90;;;;;;5006782;28;20558;-80
2023/03/04 11:28:29;;;;;;;11.88;2.10;;;7.70;99.90;;;;;;4987739;28;20407;-79
2023/03/04 11:30:58;;;;;;;14.85;3.00;;;7.80;99.90;;;;;;4999671;28;20443;-78
2023/03/04 11:33:52;;;;;;;12.57;3.17;;;8.00;99.90;;;;;;5013876;28;20424;-80
2023/03/04 11:36:31;;;;;;;14.52;3.42;;;8.00;99.90;;;;;;5005309;28;20430;-78
2023/03/04 11:38:58;;;;;;;12.93;3.30;;;7.90;99.90;;;;;;5004957;28;20826;-81
2023/03/04 11:41:34;;;;;;;17.00;3.88;;;7.70;99.90;;;;;;5006466;28;20426;-79
2023/03/04 11:44:00;;;;;;;15.50;3.88;;;7.70;99.90;;;;;;5005699;28;20504;-79
2023/03/04 11:46:35;;;;;;;14.80;3.50;;;7.90;99.90;;;;;;5006029;28;20448;-84
2023/03/04 11:49:06;;;;;;;14.90;3.17;;;8.20;99.90;;;;;;5001187;28;20438;-79
2023/03/04 11:51:41;;;;;;;23.55;5.15;;;8.00;99.90;;;;;;5005047;28;20479;-80
2023/03/04 11:54:33;;;;;;;16.00;4.00;;;8.00;99.90;;;;;;5017144;28;20532;-81
2023/03/04 11:57:06;;;;;;;17.15;4.65;;;8.00;99.90;;;;;;5005888;28;20917;-80
2023/03/04 11:59:44;;;;;;;13.73;3.85;;;7.80;99.90;;;;;;5007632;28;20392;-80
2023/03/04 12:02:11;;;;;;;21.70;4.35;;;7.80;99.90;;;;;;5020731;28;20815;-81
2023/03/04 12:05:03;;;;;;;21.80;5.50;;;7.60;99.90;;;;;;5006111;28;20503;-80
2023/03/04 12:07:28;;;;;;;22.60;5.13;;;7.60;99.90;;;;;;5004500;28;20441;-79
2023/03/04 12:10:32;;;;;;;16.52;4.85;;;7.60;99.90;;;;;;5004798;28;20440;-79
2023/03/04 12:13:24;;;;;;;17.08;4.68;;;7.70;99.90;;;;;;5005788;28;20424;-77
2023/03/04 12:16:04;;;;;;;18.75;3.40;;;7.40;99.90;;;;;;5006007;28;20441;-76
2023/03/04 12:18:48;;;;;;;14.30;3.90;;;7.50;99.90;;;;;;4987720;28;20516;-77
2023/03/04 12:21:22;;;;;;;15.27;2.95;;;7.40;99.90;;;;;;5004546;28;20436;-78
2023/03/04 12:24:24;;;;;;;13.17;3.07;;;7.90;99.90;;;;;;5005279;28;21031;-77
2023/03/04 12:26:53;;;;;;;13.02;2.67;;;7.90;99.90;;;;;;5005745;28;20435;-83
2023/03/04 12:29:45;;;;;;;12.53;4.30;;;8.00;99.90;;;;;;5004930;28;20521;-82
2023/03/04 12:32:41;;;;;;;17.93;3.47;;;7.70;99.90;;;;;;4996597;28;20445;-80
2023/03/04 12:35:34;;;;;;;18.10;4.63;;;7.10;99.90;;;;;;5003144;28;20516;-81
2023/03/04 12:38:12;;;;;;;21.08;4.75;;;7.20;99.90;;;;;;4990609;28;20438;-77
2023/03/04 12:40:56;;;;;;;21.95;4.65;;;7.10;99.90;;;;;;5008011;28;20413;-78
2023/03/04 12:43:56;;;;;;;18.08;3.67;;;7.10;99.90;;;;;;5026235;28;20830;-81
2023/03/04 12:46:29;;;;;;;20.10;5.37;;;7.10;99.90;;;;;;5003693;28;20426;-80
2023/03/04 12:49:28;;;;;;;11.95;3.35;;;7.40;99.90;;;;;;5000450;28;20927;-81
2023/03/04 12:51:57;;;;;;;17.33;4.30;;;7.70;99.90;;;;;;4984780;28;20594;-79
2023/03/04 12:54:39;;;;;;;14.10;2.77;;;7.70;99.90;;;;;;4993066;28;20545;-79
2023/03/04 12:57:15;;;;;;;14.93;3.40;;;7.50;99.90;;;;;;5010704;28;20428;-80
2023/03/04 12:59:48;;;;;;;16.23;3.63;;;7.50;99.90;;;;;;4996246;28;20424;-81
2023/03/04 13:02:39;;;;;;;14.63;3.15;;;7.50;99.90;;;;;;5028287;28;20463;-82